Time;durP1;ratioP1;P1;durP2;ratioP2;P2;SDS_P1;SDS_P2;PMS_P1;PMS_P2;Temp;Humidity;BMP_temperature;BMP_pressure;BME280_temperature;BME280_humidity;BME280_pressure;Samples;Min_cycle;Max_cycle;Signal;HPM_P1;HPM_P2
2021/06/07 00:01:22;;;;;;;39.95;26.38;;;16.10;99.90;;;;;;5033690;28;20017;-78
2021/06/07 00:03:49;;;;;;;44.72;27.73;;;16.10;99.90;;;;;;5033559;28;20075;-77
2021/06/07 00:06:16;;;;;;;44.45;29.23;;;16.20;99.90;;;;;;5033462;28;20040;-78
2021/06/07 00:08:42;;;;;;;37.78;24.33;;;16.10;99.90;;;;;;5033466;28;20108;-78
2021/06/07 00:11:09;;;;;;;32.33;22.67;;;16.10;99.90;;;;;;5034913;28;20029;-78
2021/06/07 00:13:37;;;;;;;39.20;26.23;;;16.20;99.90;;;;;;5034616;28;20491;-78
2021/06/07 00:16:04;;;;;;;40.10;25.90;;;16.20;99.90;;;;;;5033293;28;20025;-78
2021/06/07 00:18:29;;;;;;;33.97;22.88;;;16.20;99.90;;;;;;5034802;28;20018;-78
2021/06/07 00:21:07;;;;;;;38.20;25.13;;;16.30;99.90;;;;;;5032302;28;20032;-78
2021/06/07 00:23:33;;;;;;;40.25;25.88;;;16.30;99.90;;;;;;5033172;28;20021;-78
2021/06/07 00:25:59;;;;;;;38.65;24.05;;;16.30;99.90;;;;;;5034382;28;20030;-78
2021/06/07 00:28:25;;;;;;;38.55;25.17;;;16.30;99.90;;;;;;5034574;28;20088;-78
2021/06/07 00:30:50;;;;;;;42.45;28.05;;;16.20;99.90;;;;;;5032992;28;20025;-78
2021/06/07 00:33:16;;;;;;;41.28;26.45;;;16.30;99.90;;;;;;5032982;28;20389;-78
2021/06/07 00:35:42;;;;;;;42.13;26.80;;;16.20;99.90;;;;;;5033896;28;20041;-78
2021/06/07 00:38:08;;;;;;;43.75;26.77;;;16.20;99.90;;;;;;5032740;28;20044;-77
2021/06/07 00:40:34;;;;;;;44.72;27.67;;;16.10;99.90;;;;;;5034091;28;20093;-78
2021/06/07 00:43:01;;;;;;;35.70;22.52;;;16.20;99.90;;;;;;5032823;28;20381;-78
2021/06/07 00:45:29;;;;;;;45.50;28.08;;;16.20;99.90;;;;;;5034288;28;20033;-78
2021/06/07 00:47:57;;;;;;;42.40;26.17;;;16.00;99.90;;;;;;5032726;28;20048;-78
2021/06/07 00:50:49;;;;;;;44.25;27.10;;;16.00;99.90;;;;;;5032702;28;20026;-78
2021/06/07 00:53:17;;;;;;;45.42;28.77;;;16.00;99.90;;;;;;5032632;28;20025;-78
2021/06/07 00:55:48;;;;;;;41.53;25.65;;;16.00;99.90;;;;;;5032517;28;20030;-78
2021/06/07 00:58:16;;;;;;;44.22;26.15;;;16.00;99.90;;;;;;5032545;28;20480;-78
2021/06/07 01:00:42;;;;;;;43.97;27.52;;;16.00;99.90;;;;;;5032712;28;20021;-78
2021/06/07 01:03:09;;;;;;;42.10;24.77;;;16.00;99.90;;;;;;5032364;28;20021;-78
2021/06/07 01:05:37;;;;;;;46.17;29.50;;;15.90;99.90;;;;;;5032473;28;20087;-78
2021/06/07 01:08:03;;;;;;;38.42;24.58;;;16.00;99.90;;;;;;5016182;28;20033;-78
2021/06/07 01:10:29;;;;;;;49.55;27.77;;;16.00;99.90;;;;;;5032332;28;20029;-78
2021/06/07 01:12:55;;;;;;;48.83;27.35;;;16.00;99.90;;;;;;5032386;28;20045;-78
2021/06/07 01:15:21;;;;;;;41.30;25.20;;;15.90;99.90;;;;;;5033420;28;20057;-77
2021/06/07 01:17:47;;;;;;;42.35;24.13;;;16.00;99.90;;;;;;5032250;28;20028;-78
2021/06/07 01:20:17;;;;;;;48.03;27.15;;;16.00;99.90;;;;;;5032489;28;20034;-78
2021/06/07 01:22:43;;;;;;;33.55;23.13;;;16.00;99.90;;;;;;5032201;28;20500;-78
2021/06/07 01:25:19;;;;;;;36.78;23.75;;;16.00;99.90;;;;;;5033430;28;20055;-78
2021/06/07 01:27:44;;;;;;;38.85;25.60;;;16.00;99.90;;;;;;5032259;28;20037;-78
2021/06/07 01:30:13;;;;;;;39.80;25.17;;;16.00;99.90;;;;;;5032162;28;20021;-78
2021/06/07 01:32:40;;;;;;;35.00;22.80;;;15.90;99.90;;;;;;5031887;28;20115;-78
2021/06/07 01:35:08;;;;;;;53.75;28.85;;;15.90;99.90;;;;;;5031761;28;20090;-78
2021/06/07 01:37:34;;;;;;;44.03;26.25;;;15.90;99.90;;;;;;5032038;28;20032;-78
2021/06/07 01:40:01;;;;;;;46.53;26.10;;;15.80;99.90;;;;;;5033278;28;20055;-78
2021/06/07 01:42:26;;;;;;;39.88;24.08;;;15.80;99.90;;;;;;5031971;28;20026;-78
2021/06/07 01:44:52;;;;;;;41.05;25.45;;;15.90;99.90;;;;;;5033817;28;20075;-78
2021/06/07 01:47:18;;;;;;;35.75;23.17;;;15.90;99.90;;;;;;5033207;28;20049;-77
2021/06/07 01:49:44;;;;;;;33.92;21.63;;;15.90;99.90;;;;;;5031918;28;20032;-78
2021/06/07 01:52:10;;;;;;;42.33;27.58;;;15.90;99.90;;;;;;5031882;28;20029;-78
2021/06/07 01:54:37;;;;;;;40.58;25.17;;;15.90;99.90;;;;;;5031873;28;20029;-78
2021/06/07 01:57:04;;;;;;;38.38;24.92;;;15.90;99.90;;;;;;5031894;28;20036;-78
2021/06/07 01:59:30;;;;;;;38.65;23.98;;;16.00;99.90;;;;;;5031824;28;20017;-78
2021/06/07 02:01:55;;;;;;;37.92;23.13;;;15.90;99.90;;;;;;5033092;28;20482;-78
2021/06/07 02:04:22;;;;;;;39.80;24.98;;;15.90;99.90;;;;;;5031855;28;20033;-78
2021/06/07 02:06:48;;;;;;;33.83;21.60;;;15.90;99.90;;;;;;5031715;28;20052;-78
2021/06/07 02:09:14;;;;;;;43.22;24.02;;;15.90;99.90;;;;;;5031721;28;20029;-78
2021/06/07 02:11:40;;;;;;;40.60;23.60;;;15.80;99.90;;;;;;5033245;28;20357;-78
2021/06/07 02:14:06;;;;;;;39.22;24.58;;;15.80;99.90;;;;;;5032893;28;20033;-78
2021/06/07 02:16:35;;;;;;;35.20;23.35;;;15.80;99.90;;;;;;5031628;28;20026;-78
2021/06/07 02:19:05;;;;;;;40.60;24.20;;;15.80;99.90;;;;;;5032012;28;20499;-78
2021/06/07 02:21:32;;;;;;;42.47;24.67;;;15.80;99.90;;;;;;5032221;28;20029;-79
2021/06/07 02:23:58;;;;;;;27.88;19.70;;;15.80;99.90;;;;;;5032892;28;20030;-78
2021/06/07 02:26:26;;;;;;;41.67;24.52;;;15.90;99.90;;;;;;5031878;28;20021;-78
2021/06/07 02:28:58;;;;;;;36.20;22.52;;;15.90;99.90;;;;;;5031540;28;20021;-78
2021/06/07 02:31:24;;;;;;;44.22;25.38;;;15.90;99.90;;;;;;5033127;28;20144;-78
2021/06/07 02:33:52;;;;;;;45.78;26.10;;;15.90;99.90;;;;;;5031198;28;20473;-78
2021/06/07 02:36:19;;;;;;;37.03;23.45;;;15.90;99.90;;;;;;5031498;28;20032;-78
2021/06/07 02:38:46;;;;;;;42.38;25.70;;;15.80;99.90;;;;;;5032754;28;20031;-78
2021/06/07 02:41:11;;;;;;;50.15;27.35;;;15.80;99.90;;;;;;5031410;28;20080;-78
2021/06/07 02:43:37;;;;;;;43.67;25.40;;;15.80;99.90;;;;;;5031671;28;20029;-78
2021/06/07 02:46:03;;;;;;;43.28;26.77;;;15.80;99.90;;;;;;5036286;28;20021;-78
2021/06/07 02:48:29;;;;;;;43.35;26.20;;;15.80;99.90;;;;;;5034975;28;20473;-78
2021/06/07 02:50:55;;;;;;;47.53;27.42;;;15.80;99.90;;;;;;5034838;28;20063;-78
2021/06/07 02:53:21;;;;;;;46.28;27.83;;;15.70;99.90;;;;;;5034880;28;20120;-78
2021/06/07 02:55:49;;;;;;;45.47;28.35;;;15.60;99.90;;;;;;5034754;28;20029;-78
2021/06/07 02:58:16;;;;;;;40.85;24.63;;;15.70;99.90;;;;;;5034792;28;20030;-78
2021/06/07 03:00:47;;;;;;;41.47;23.73;;;15.70;99.90;;;;;;5034732;28;20546;-78
2021/06/07 03:03:13;;;;;;;50.90;27.02;;;15.70;99.90;;;;;;5034683;28;20056;-78
2021/06/07 03:05:41;;;;;;;53.40;29.35;;;15.70;99.90;;;;;;5034598;28;20033;-78
2021/06/07 03:08:09;;;;;;;38.53;24.40;;;15.70;99.90;;;;;;5035859;28;20148;-78
2021/06/07 03:10:36;;;;;;;49.88;28.38;;;15.70;99.90;;;;;;5034568;28;20025;-78
2021/06/07 03:13:02;;;;;;;40.97;25.58;;;15.70;99.90;;;;;;5034455;28;20037;-78
2021/06/07 03:15:28;;;;;;;50.67;29.20;;;15.70;99.90;;;;;;5035920;28;20037;-78
2021/06/07 03:17:55;;;;;;;45.38;28.63;;;15.80;99.90;;;;;;5034723;28;20018;-78
2021/06/07 03:20:28;;;;;;;38.70;24.45;;;15.80;99.90;;;;;;5034393;28;20030;-78
2021/06/07 03:22:59;;;;;;;44.67;26.90;;;15.90;99.90;;;;;;5034376;28;20017;-78
2021/06/07 03:25:26;;;;;;;49.28;29.17;;;15.80;99.90;;;;;;5035627;28;20048;-78
2021/06/07 03:27:53;;;;;;;50.53;28.10;;;15.80;99.90;;;;;;5034252;28;20120;-78
2021/06/07 03:30:19;;;;;;;41.92;24.08;;;15.80;99.90;;;;;;5034297;28;20026;-78
2021/06/07 03:32:45;;;;;;;53.67;30.58;;;15.80;99.90;;;;;;5034135;28;20026;-79
2021/06/07 03:35:14;;;;;;;40.83;25.95;;;15.80;99.90;;;;;;5034994;28;20176;-78
2021/06/07 03:37:40;;;;;;;49.22;28.52;;;15.70;99.90;;;;;;5017625;28;20037;-78
2021/06/07 03:40:12;;;;;;;54.50;29.95;;;15.80;99.90;;;;;;5035251;28;20419;-78
2021/06/07 03:42:38;;;;;;;47.03;28.30;;;15.70;99.90;;;;;;5034021;28;20026;-78
2021/06/07 03:45:07;;;;;;;42.95;27.88;;;15.60;99.90;;;;;;5035449;28;20036;-78
2021/06/07 03:47:32;;;;;;;52.40;31.20;;;15.60;99.90;;;;;;5035142;28;20388;-78
2021/06/07 03:49:58;;;;;;;44.83;26.73;;;15.60;99.90;;;;;;5035067;28;20032;-77
2021/06/07 03:52:24;;;;;;;51.20;29.20;;;15.70;99.90;;;;;;5033752;28;20022;-78
2021/06/07 03:54:50;;;;;;;39.22;24.00;;;15.70;99.90;;;;;;5033628;28;20029;-78
2021/06/07 03:57:16;;;;;;;50.72;30.23;;;15.80;99.90;;;;;;5034934;28;20025;-78
2021/06/07 03:59:41;;;;;;;45.00;27.48;;;15.70;99.90;;;;;;5034908;28;20032;-78
2021/06/07 04:02:09;;;;;;;46.55;27.58;;;15.70;99.90;;;;;;5034860;28;20052;-78
2021/06/07 04:04:36;;;;;;;48.85;28.90;;;15.60;99.90;;;;;;5035368;28;20504;-78
2021/06/07 04:07:03;;;;;;;41.13;26.17;;;15.60;99.90;;;;;;5033515;28;20021;-78
2021/06/07 04:09:29;;;;;;;48.90;28.90;;;15.60;99.90;;;;;;5033396;28;20396;-78
2021/06/07 04:11:55;;;;;;;48.30;29.48;;;15.60;99.90;;;;;;5033376;28;20026;-78
2021/06/07 04:14:21;;;;;;;52.38;29.67;;;15.70;99.90;;;;;;5034543;28;20079;-78
2021/06/07 04:16:47;;;;;;;50.50;29.88;;;15.60;99.90;;;;;;5033344;28;20029;-78
2021/06/07 04:19:12;;;;;;;36.20;23.65;;;15.60;99.90;;;;;;5033277;28;20534;-78
2021/06/07 04:21:39;;;;;;;43.65;26.20;;;15.70;99.90;;;;;;5033181;28;20491;-78
2021/06/07 04:24:06;;;;;;;43.58;27.15;;;15.70;99.90;;;;;;5033164;28;20120;-78
2021/06/07 04:26:32;;;;;;;40.85;25.15;;;15.80;99.90;;;;;;5033188;28;20022;-78
2021/06/07 04:28:58;;;;;;;33.65;22.38;;;15.70;99.90;;;;;;5034345;28;20496;-78
2021/06/07 04:31:25;;;;;;;35.47;22.95;;;15.80;99.90;;;;;;5032989;28;20017;-78
2021/06/07 04:33:51;;;;;;;37.95;25.13;;;16.00;99.90;;;;;;5033867;28;20079;-78
2021/06/07 04:36:17;;;;;;;36.10;21.83;;;15.90;99.90;;;;;;5034257;28;20021;-78
2021/06/07 04:38:42;;;;;;;35.75;23.15;;;15.90;99.90;;;;;;5033006;28;20030;-78
2021/06/07 04:41:08;;;;;;;33.97;21.88;;;15.80;99.90;;;;;;5032803;28;20029;-78
2021/06/07 04:43:34;;;;;;;38.13;24.77;;;15.90;99.90;;;;;;5032739;28;20026;-77
2021/06/07 04:45:59;;;;;;;32.63;21.45;;;15.90;99.90;;;;;;5032717;28;20063;-78
2021/06/07 04:48:25;;;;;;;39.63;23.27;;;15.80;99.90;;;;;;5032706;28;20489;-78
2021/06/07 04:50:52;;;;;;;30.65;22.02;;;15.80;99.90;;;;;;5033909;28;20026;-77
2021/06/07 04:53:18;;;;;;;28.88;21.23;;;15.80;99.90;;;;;;5032597;28;20417;-77
2021/06/07 04:55:46;;;;;;;34.50;21.50;;;15.90;99.90;;;;;;5034333;28;20461;-78
2021/06/07 04:58:16;;;;;;;33.78;21.65;;;15.90;99.90;;;;;;5032547;28;20051;-77
2021/06/07 05:00:46;;;;;;;28.42;19.45;;;15.80;99.90;;;;;;5032485;28;20030;-78
2021/06/07 05:03:12;;;;;;;30.67;18.55;;;15.90;99.90;;;;;;5033728;28;20045;-77
2021/06/07 05:05:38;;;;;;;28.10;18.98;;;16.00;99.90;;;;;;5033980;28;20067;-78
2021/06/07 05:08:05;;;;;;;27.23;18.67;;;16.00;99.90;;;;;;5031891;28;20072;-78
2021/06/07 05:10:32;;;;;;;28.65;19.40;;;16.00;99.90;;;;;;5032317;28;20070;-78
2021/06/07 05:12:58;;;;;;;26.70;18.83;;;16.00;99.90;;;;;;5032323;28;20036;-77
2021/06/07 05:15:24;;;;;;;24.45;17.90;;;16.00;99.90;;;;;;5032249;28;20499;-78
2021/06/07 05:17:50;;;;;;;24.98;17.20;;;16.00;99.90;;;;;;5032235;28;20017;-78
2021/06/07 05:20:21;;;;;;;25.58;17.33;;;16.00;99.90;;;;;;5032144;28;20032;-78
2021/06/07 05:22:48;;;;;;;25.17;17.95;;;16.10;99.90;;;;;;5033102;28;20368;-78
2021/06/07 05:25:16;;;;;;;23.55;16.50;;;16.10;99.90;;;;;;5033410;28;20032;-78
2021/06/07 05:27:42;;;;;;;25.80;16.90;;;16.10;99.90;;;;;;5033594;28;20033;-78
2021/06/07 05:30:08;;;;;;;20.80;15.70;;;16.10;99.90;;;;;;5033674;28;20037;-78
2021/06/07 05:32:35;;;;;;;22.50;15.13;;;16.20;99.90;;;;;;5033605;28;20049;-77
2021/06/07 05:35:01;;;;;;;21.08;15.38;;;16.30;99.90;;;;;;5031863;28;20045;-78
2021/06/07 05:37:28;;;;;;;21.55;15.20;;;16.40;99.90;;;;;;5032013;28;20438;-78
2021/06/07 05:39:54;;;;;;;22.02;14.75;;;16.40;99.90;;;;;;5031996;28;20029;-78
2021/06/07 05:42:20;;;;;;;19.35;14.18;;;16.40;99.90;;;;;;5033201;28;20024;-78
2021/06/07 05:44:45;;;;;;;23.35;13.65;;;16.50;99.90;;;;;;5031919;28;20022;-78
2021/06/07 05:47:11;;;;;;;23.13;14.75;;;16.40;99.90;;;;;;5033184;28;20029;-78
2021/06/07 05:49:40;;;;;;;20.27;13.85;;;16.30;99.90;;;;;;5033209;28;20500;-78
2021/06/07 05:52:10;;;;;;;19.23;13.57;;;16.30;99.90;;;;;;5031958;28;20025;-78
2021/06/07 05:54:38;;;;;;;19.25;14.18;;;16.30;99.90;;;;;;5033075;28;20064;-77
2021/06/07 05:57:05;;;;;;;21.25;13.75;;;16.30;99.90;;;;;;5033109;28;20029;-78
2021/06/07 05:59:31;;;;;;;21.02;14.60;;;16.30;99.90;;;;;;5031882;28;20049;-78
2021/06/07 06:01:57;;;;;;;17.92;13.90;;;16.30;99.90;;;;;;5031811;28;20049;-78
2021/06/07 06:04:23;;;;;;;17.85;14.07;;;16.30;99.90;;;;;;5031809;28;20480;-78
2021/06/07 06:06:50;;;;;;;19.13;13.05;;;16.30;99.90;;;;;;5031763;28;20025;-78
2021/06/07 06:09:15;;;;;;;16.52;12.77;;;16.30;99.90;;;;;;5031970;28;20027;-78
2021/06/07 06:11:41;;;;;;;17.27;12.45;;;16.30;99.90;;;;;;5031689;28;20021;-78
2021/06/07 06:14:09;;;;;;;19.33;13.27;;;16.30;99.90;;;;;;5031633;28;20034;-78
2021/06/07 06:16:35;;;;;;;16.95;12.15;;;16.20;99.90;;;;;;5032978;28;20022;-78
2021/06/07 06:19:00;;;;;;;16.27;12.18;;;16.20;99.90;;;;;;5032578;28;20022;-78
2021/06/07 06:21:27;;;;;;;16.98;12.85;;;16.20;99.90;;;;;;5035421;28;20033;-78
2021/06/07 06:23:55;;;;;;;15.15;11.70;;;16.30;99.90;;;;;;5035439;28;20481;-78
2021/06/07 06:26:21;;;;;;;16.27;12.90;;;16.20;99.90;;;;;;5035628;28;20032;-78
2021/06/07 06:28:48;;;;;;;16.13;12.45;;;16.30;99.90;;;;;;5035320;28;20037;-78
2021/06/07 06:31:15;;;;;;;19.60;12.60;;;16.30;99.90;;;;;;5036506;28;20032;-78
2021/06/07 06:33:41;;;;;;;17.65;12.15;;;16.30;99.90;;;;;;5036201;28;20427;-78
2021/06/07 06:36:07;;;;;;;18.05;12.70;;;16.20;99.90;;;;;;5036490;28;20397;-78
2021/06/07 06:38:35;;;;;;;15.63;12.30;;;16.20;99.90;;;;;;5036681;28;20104;-78
2021/06/07 06:41:02;;;;;;;17.38;12.82;;;16.30;99.90;;;;;;5035130;28;20500;-78
2021/06/07 06:43:28;;;;;;;17.85;13.30;;;16.30;99.90;;;;;;5036640;28;20034;-78
2021/06/07 06:45:54;;;;;;;20.27;13.15;;;16.20;99.90;;;;;;5036302;28;20489;-78
2021/06/07 06:48:20;;;;;;;16.23;12.43;;;16.20;99.90;;;;;;5036248;28;20021;-78
2021/06/07 06:50:45;;;;;;;17.25;13.02;;;16.30;99.90;;;;;;5034928;28;20060;-79
2021/06/07 06:53:17;;;;;;;18.33;12.75;;;16.20;99.90;;;;;;5034873;28;20036;-78
2021/06/07 06:55:44;;;;;;;19.25;14.13;;;16.30;99.90;;;;;;5034816;28;20396;-78
2021/06/07 06:58:10;;;;;;;19.23;14.05;;;16.30;99.90;;;;;;5036128;28;20430;-78
2021/06/07 07:00:37;;;;;;;19.20;14.10;;;16.30;99.90;;;;;;5036072;28;20075;-78
2021/06/07 07:03:10;;;;;;;19.98;14.75;;;16.30;99.90;;;;;;5034701;28;20114;-79
2021/06/07 07:05:37;;;;;;;17.07;12.70;;;16.30;99.90;;;;;;5034718;28;20125;-78
2021/06/07 07:08:04;;;;;;;18.83;14.38;;;16.20;99.90;;;;;;5035986;28;20476;-78
2021/06/07 07:10:30;;;;;;;18.83;13.95;;;16.40;99.90;;;;;;5036144;28;20034;-78
2021/06/07 07:12:56;;;;;;;18.13;14.07;;;16.40;99.90;;;;;;5035820;28;20052;-78
2021/06/07 07:15:22;;;;;;;22.20;15.65;;;16.40;99.90;;;;;;5034708;28;20040;-78
2021/06/07 07:17:47;;;;;;;16.67;12.80;;;16.30;99.90;;;;;;5035712;28;20027;-78
2021/06/07 07:20:14;;;;;;;23.27;16.00;;;16.30;99.90;;;;;;5035225;28;20075;-78
2021/06/07 07:22:42;;;;;;;21.75;15.00;;;16.20;99.90;;;;;;5035659;28;20021;-78
2021/06/07 07:25:09;;;;;;;19.42;15.27;;;16.10;99.90;;;;;;5035566;28;20267;-78
2021/06/07 07:27:36;;;;;;;18.27;13.27;;;16.10;99.90;;;;;;5035485;28;20476;-78
2021/06/07 07:30:09;;;;;;;20.20;13.68;;;16.20;99.90;;;;;;5035167;28;20028;-78
2021/06/07 07:32:36;;;;;;;18.75;14.15;;;16.10;99.90;;;;;;5034228;28;20488;-78
2021/06/07 07:35:03;;;;;;;17.08;12.27;;;16.20;99.90;;;;;;5033809;28;20046;-78
2021/06/07 07:37:29;;;;;;;14.57;12.13;;;16.40;99.90;;;;;;5034066;28;20036;-78
2021/06/07 07:39:55;;;;;;;16.20;12.77;;;16.50;99.90;;;;;;5035337;28;20018;-78
2021/06/07 07:42:20;;;;;;;16.33;12.10;;;16.60;99.90;;;;;;5033953;28;20021;-79
2021/06/07 07:44:46;;;;;;;14.02;11.10;;;16.80;99.90;;;;;;5035480;28;20033;-78
2021/06/07 07:47:12;;;;;;;16.30;12.18;;;16.80;99.90;;;;;;5033853;28;20045;-78
2021/06/07 07:49:39;;;;;;;17.02;12.85;;;16.90;99.90;;;;;;5033809;28;20033;-78
2021/06/07 07:52:07;;;;;;;15.25;12.13;;;16.90;99.90;;;;;;5034999;28;20488;-78
2021/06/07 07:54:34;;;;;;;13.82;10.32;;;16.90;99.90;;;;;;5033609;28;20032;-78
2021/06/07 07:57:00;;;;;;;13.85;10.45;;;17.00;99.90;;;;;;5034974;28;20473;-78
2021/06/07 07:59:26;;;;;;;15.70;10.18;;;16.90;99.90;;;;;;5033728;28;20061;-79
2021/06/07 08:01:52;;;;;;;12.38;10.20;;;16.90;99.90;;;;;;5033581;28;20032;-79
2021/06/07 08:04:18;;;;;;;13.82;10.35;;;16.90;99.90;;;;;;5034839;28;20589;-79
2021/06/07 08:06:44;;;;;;;12.20;9.90;;;16.90;99.90;;;;;;5033576;28;20055;-78
2021/06/07 08:09:11;;;;;;;12.23;10.23;;;16.90;99.90;;;;;;5034703;28;20029;-78
2021/06/07 08:11:38;;;;;;;13.68;9.90;;;17.00;99.90;;;;;;5033425;28;20033;-78
2021/06/07 08:14:04;;;;;;;12.27;10.18;;;16.90;99.90;;;;;;5033246;28;20035;-78
2021/06/07 08:16:30;;;;;;;11.73;9.43;;;16.90;99.90;;;;;;5034812;28;20076;-77
2021/06/07 08:18:56;;;;;;;13.77;9.93;;;17.00;99.90;;;;;;5034563;28;20025;-78
2021/06/07 08:21:21;;;;;;;12.60;9.95;;;16.90;99.90;;;;;;5033179;28;20022;-78
2021/06/07 08:23:47;;;;;;;13.02;9.98;;;16.90;99.90;;;;;;5034453;28;20053;-78
2021/06/07 08:26:13;;;;;;;12.70;9.98;;;17.00;99.90;;;;;;5033156;28;20568;-78
2021/06/07 08:28:39;;;;;;;11.65;9.70;;;17.10;99.90;;;;;;5034556;28;20036;-78
2021/06/07 08:31:04;;;;;;;10.85;8.85;;;17.00;99.90;;;;;;5034358;28;20025;-78
2021/06/07 08:33:33;;;;;;;11.00;8.52;;;17.00;99.90;;;;;;5032943;28;20030;-78
2021/06/07 08:36:01;;;;;;;11.68;8.95;;;16.90;99.90;;;;;;5032705;28;20042;-78
2021/06/07 08:38:27;;;;;;;10.43;8.15;;;16.90;99.90;;;;;;5032868;28;20030;-78
2021/06/07 08:40:54;;;;;;;10.10;8.90;;;16.90;99.90;;;;;;5034286;28;20036;-78
2021/06/07 08:43:21;;;;;;;10.57;8.48;;;16.90;99.90;;;;;;5033815;28;20376;-78
2021/06/07 08:45:48;;;;;;;9.02;7.63;;;17.00;99.90;;;;;;5032772;28;20025;-79
2021/06/07 08:48:14;;;;;;;9.57;8.05;;;17.10;99.90;;;;;;5016295;28;20040;-78
2021/06/07 08:50:40;;;;;;;9.68;7.43;;;17.30;99.90;;;;;;5032743;28;20033;-78
2021/06/07 08:53:06;;;;;;;10.27;7.57;;;17.40;99.90;;;;;;5032895;28;20021;-78
2021/06/07 08:55:34;;;;;;;8.05;6.80;;;17.40;99.90;;;;;;5032657;28;20488;-78
2021/06/07 08:58:04;;;;;;;7.63;6.82;;;17.50;99.90;;;;;;5034143;28;20048;-78
2021/06/07 09:00:33;;;;;;;9.80;7.88;;;17.40;99.90;;;;;;5032468;28;20045;-78
2021/06/07 09:03:08;;;;;;;10.63;7.90;;;17.30;99.90;;;;;;5032501;28;20052;-78
2021/06/07 09:05:35;;;;;;;7.85;7.05;;;17.30;99.90;;;;;;5034077;28;20392;-78
2021/06/07 09:08:04;;;;;;;8.38;6.68;;;17.40;99.90;;;;;;5032438;28;20025;-78
2021/06/07 09:10:35;;;;;;;8.48;6.60;;;17.40;99.90;;;;;;5016163;28;20125;-78
2021/06/07 09:13:07;;;;;;;9.35;6.57;;;17.40;99.90;;;;;;5032442;28;20021;-78
2021/06/07 09:15:36;;;;;;;8.48;6.95;;;17.30;99.90;;;;;;5032169;28;20121;-78
2021/06/07 09:18:04;;;;;;;8.65;7.10;;;17.30;99.90;;;;;;5033546;28;20480;-78
2021/06/07 09:20:31;;;;;;;9.43;7.00;;;17.40;99.90;;;;;;5033481;28;20034;-78
2021/06/07 09:22:58;;;;;;;8.50;7.00;;;17.40;99.90;;;;;;5032195;28;20108;-78
2021/06/07 09:25:30;;;;;;;6.57;5.97;;;17.40;99.90;;;;;;5032150;28;20120;-78
2021/06/07 09:28:04;;;;;;;10.45;6.60;;;17.30;99.90;;;;;;5032152;28;20053;-78
2021/06/07 09:30:38;;;;;;;8.10;6.18;;;17.20;99.90;;;;;;5032101;28;20535;-78
2021/06/07 09:33:23;;;;;;;6.65;5.95;;;17.30;99.90;;;;;;5032048;28;20500;-78
2021/06/07 09:36:11;;;;;;;7.40;6.32;;;17.30;99.90;;;;;;5031775;28;20041;-78
2021/06/07 09:38:57;;;;;;;10.93;7.57;;;17.30;99.90;;;;;;5031974;28;20044;-78
2021/06/07 09:41:24;;;;;;;7.00;5.78;;;17.20;99.90;;;;;;5033283;28;20021;-78
2021/06/07 09:43:59;;;;;;;8.43;6.60;;;17.20;99.90;;;;;;5015711;28;20117;-78
2021/06/07 09:46:29;;;;;;;8.18;6.13;;;17.20;99.90;;;;;;5031969;28;20030;-78
2021/06/07 09:49:08;;;;;;;9.07;7.00;;;17.20;99.90;;;;;;5031971;28;20484;-78
2021/06/07 09:51:35;;;;;;;9.45;7.05;;;17.10;99.90;;;;;;5031939;28;20495;-78
2021/06/07 09:54:01;;;;;;;10.55;6.85;;;17.20;99.90;;;;;;5034518;28;20033;-78
2021/06/07 09:56:27;;;;;;;7.80;6.45;;;17.20;99.90;;;;;;5037511;28;20033;-77
2021/06/07 09:58:54;;;;;;;9.20;6.38;;;17.10;99.90;;;;;;5035915;28;20026;-78
2021/06/07 10:01:31;;;;;;;7.95;6.03;;;17.20;99.90;;;;;;5035856;28;20116;-78
2021/06/07 10:03:59;;;;;;;8.43;7.05;;;17.20;99.90;;;;;;5037235;28;20029;-78
2021/06/07 10:06:33;;;;;;;8.35;7.15;;;17.20;99.90;;;;;;5035776;28;20503;-78
2021/06/07 10:09:04;;;;;;;7.05;6.22;;;17.20;99.90;;;;;;5035862;28;20116;-77
2021/06/07 10:11:33;;;;;;;7.30;5.88;;;17.30;99.90;;;;;;5035729;28;20139;-78
2021/06/07 10:14:20;;;;;;;18.08;12.20;;;17.40;99.90;;;;;;5035646;28;20030;-78
2021/06/07 10:16:57;;;;;;;7.13;6.43;;;17.50;99.90;;;;;;5037130;28;20022;-78
2021/06/07 10:22:11;;;;;;;6.03;5.43;;;17.70;99.90;;;;;;5037072;28;20029;-78
2021/06/07 10:24:37;;;;;;;6.35;5.10;;;17.80;99.90;;;;;;5036641;28;20026;-78
2021/06/07 10:27:03;;;;;;;7.40;6.30;;;17.70;99.90;;;;;;5035402;28;20481;-78
2021/06/07 10:29:37;;;;;;;8.95;6.60;;;17.70;99.90;;;;;;5035330;28;20029;-78
2021/06/07 10:32:11;;;;;;;6.25;5.50;;;17.60;99.90;;;;;;5035310;28;20026;-78
2021/06/07 10:35:00;;;;;;;6.30;5.07;;;17.60;99.90;;;;;;5034868;28;20049;-78
2021/06/07 10:37:28;;;;;;;7.57;5.72;;;17.80;99.90;;;;;;5036653;28;20041;-78
2021/06/07 10:40:19;;;;;;;6.50;5.80;;;17.80;99.90;;;;;;5035197;28;20025;-78
2021/06/07 10:43:05;;;;;;;7.07;5.57;;;17.70;99.90;;;;;;5036297;28;20025;-78
2021/06/07 10:45:34;;;;;;;6.78;6.07;;;17.80;99.90;;;;;;5034931;28;20057;-78
2021/06/07 10:48:01;;;;;;;7.50;5.85;;;17.70;99.90;;;;;;5035011;28;20083;-78
2021/06/07 10:50:30;;;;;;;5.97;5.38;;;17.70;99.90;;;;;;5036207;28;20018;-78
2021/06/07 10:52:59;;;;;;;7.82;5.63;;;17.70;99.90;;;;;;5034938;28;20026;-78
2021/06/07 10:55:41;;;;;;;7.43;5.88;;;17.70;99.90;;;;;;5034850;28;20029;-78
2021/06/07 10:58:12;;;;;;;6.40;5.80;;;17.80;99.90;;;;;;5034884;28;20033;-78
2021/06/07 11:00:45;;;;;;;8.07;7.28;;;17.80;99.90;;;;;;5018570;28;20149;-78
2021/06/07 11:03:23;;;;;;;10.63;7.30;;;17.70;99.90;;;;;;5034660;28;20104;-78
2021/06/07 11:05:53;;;;;;;8.65;7.55;;;17.80;99.90;;;;;;5033879;28;20026;-78
2021/06/07 11:08:26;;;;;;;7.85;6.97;;;17.70;99.90;;;;;;5035907;28;20132;-78
2021/06/07 11:11:07;;;;;;;8.52;7.60;;;17.70;99.90;;;;;;5035928;28;20029;-78
2021/06/07 11:13:54;;;;;;;8.20;5.82;;;17.80;99.90;;;;;;5034612;28;20435;-78
2021/06/07 11:16:29;;;;;;;10.18;7.68;;;17.80;99.90;;;;;;5034428;28;20030;-78
2021/06/07 11:19:02;;;;;;;8.90;7.05;;;17.80;99.90;;;;;;5034446;28;20032;-79
2021/06/07 11:21:45;;;;;;;7.28;6.57;;;18.00;99.90;;;;;;5034496;28;20488;-79
2021/06/07 11:24:37;;;;;;;10.02;7.22;;;18.00;99.90;;;;;;5034325;28;20033;-79
2021/06/07 11:27:05;;;;;;;7.30;6.60;;;18.00;99.90;;;;;;5034340;28;20079;-78
2021/06/07 11:29:32;;;;;;;7.53;6.47;;;18.20;99.90;;;;;;5034263;28;20021;-78
2021/06/07 11:32:07;;;;;;;9.73;6.32;;;18.20;99.90;;;;;;5034254;28;20052;-79
2021/06/07 11:34:44;;;;;;;6.55;5.85;;;18.20;99.90;;;;;;5033869;28;20042;-78
2021/06/07 11:37:11;;;;;;;7.18;6.43;;;18.30;99.90;;;;;;5035692;28;20028;-79
2021/06/07 11:39:43;;;;;;;7.80;7.00;;;18.40;99.90;;;;;;5035285;28;20017;-79
2021/06/07 11:42:17;;;;;;;7.85;7.07;;;18.30;99.90;;;;;;5033975;28;20029;-79
2021/06/07 11:44:43;;;;;;;7.72;6.93;;;18.20;99.90;;;;;;5033992;28;20021;-79
2021/06/07 11:47:13;;;;;;;9.25;5.60;;;18.10;99.90;;;;;;5033941;28;20037;-78
2021/06/07 11:49:57;;;;;;;7.25;6.50;;;18.20;99.90;;;;;;5034027;28;20030;-78
2021/06/07 11:52:32;;;;;;;8.00;6.82;;;18.20;99.90;;;;;;5035084;28;20032;-79
2021/06/07 11:55:19;;;;;;;11.82;7.82;;;18.20;99.90;;;;;;5033697;28;20056;-79
2021/06/07 11:57:46;;;;;;;7.35;6.60;;;18.10;99.90;;;;;;5033709;28;20026;-79
2021/06/07 12:00:14;;;;;;;9.57;8.50;;;18.20;99.90;;;;;;5034875;28;20100;-78
2021/06/07 12:02:39;;;;;;;9.13;8.23;;;18.30;99.90;;;;;;5033557;28;20022;-78
2021/06/07 12:05:14;;;;;;;11.93;10.68;;;18.30;99.90;;;;;;5033553;28;20167;-79
2021/06/07 12:07:46;;;;;;;10.05;8.93;;;18.20;99.90;;;;;;5033623;28;20025;-78
2021/06/07 12:10:18;;;;;;;10.93;9.82;;;18.20;99.90;;;;;;5035040;28;20075;-79
2021/06/07 12:12:44;;;;;;;11.20;10.05;;;18.10;99.90;;;;;;5034686;28;20022;-79
2021/06/07 12:15:15;;;;;;;9.45;6.60;;;18.20;99.90;;;;;;5034539;28;20108;-79
2021/06/07 12:17:48;;;;;;;9.68;8.68;;;18.20;99.90;;;;;;5032164;28;20025;-79
2021/06/07 12:20:17;;;;;;;10.68;9.20;;;18.20;99.90;;;;;;5034889;28;20025;-79
2021/06/07 12:22:47;;;;;;;9.82;7.55;;;18.30;99.90;;;;;;5033233;28;20024;-79
2021/06/07 12:30:45;;;;;;;10.52;9.38;;;18.40;99.90;;;;;;5034697;28;20546;-78
2021/06/07 12:33:11;;;;;;;11.45;9.50;;;18.30;99.90;;;;;;5034763;28;20029;-78
2021/06/07 12:35:38;;;;;;;9.57;8.68;;;18.20;99.90;;;;;;5033973;28;20089;-78
2021/06/07 12:38:11;;;;;;;9.93;8.93;;;18.20;99.90;;;;;;5034206;28;20030;-79
2021/06/07 12:40:43;;;;;;;9.38;8.48;;;18.30;99.90;;;;;;5032923;28;20022;-79
2021/06/07 12:43:09;;;;;;;11.55;10.45;;;18.40;99.90;;;;;;5034118;28;20100;-78
2021/06/07 12:45:39;;;;;;;10.32;9.07;;;18.40;99.90;;;;;;5034065;28;20556;-79
2021/06/07 12:48:30;;;;;;;10.25;8.48;;;18.50;99.90;;;;;;5032820;28;20029;-79